sensor_id;sensor_type;location;lat;lon;timestamp;P1;durP1;ratioP1;P2;durP2;ratioP2
65323;SDS011;51937;48.364;11.378;2022-08-19T00:00:00;6.57;;;3.47;;
65323;SDS011;51937;48.364;11.378;2022-08-19T00:02:26;3.40;;;3.10;;
65323;SDS011;51937;48.364;11.378;2022-08-19T00:04:51;3.78;;;3.25;;
65323;SDS011;51937;48.364;11.378;2022-08-19T00:07:19;3.90;;;3.47;;
65323;SDS011;51937;48.364;11.378;2022-08-19T00:09:45;3.28;;;2.83;;
65323;SDS011;51937;48.364;11.378;2022-08-19T00:12:10;3.65;;;3.10;;
65323;SDS011;51937;48.364;11.378;2022-08-19T00:14:36;3.28;;;2.90;;
65323;SDS011;51937;48.364;11.378;2022-08-19T00:17:03;3.58;;;2.80;;
65323;SDS011;51937;48.364;11.378;2022-08-19T00:19:31;4.75;;;2.83;;
65323;SDS011;51937;48.364;11.378;2022-08-19T00:21:57;4.13;;;2.95;;
65323;SDS011;51937;48.364;11.378;2022-08-19T00:24:22;3.10;;;2.67;;
65323;SDS011;51937;48.364;11.378;2022-08-19T00:26:48;2.78;;;2.50;;
65323;SDS011;51937;48.364;11.378;2022-08-19T00:29:14;3.80;;;3.00;;
65323;SDS011;51937;48.364;11.378;2022-08-19T00:31:42;3.20;;;2.90;;
65323;SDS011;51937;48.364;11.378;2022-08-19T00:34:09;2.50;;;2.30;;
65323;SDS011;51937;48.364;11.378;2022-08-19T00:36:36;2.80;;;2.10;;
65323;SDS011;51937;48.364;11.378;2022-08-19T00:39:03;3.75;;;2.72;;
65323;SDS011;51937;48.364;11.378;2022-08-19T00:41:28;3.25;;;2.33;;
65323;SDS011;51937;48.364;11.378;2022-08-19T00:43:58;3.60;;;2.70;;
65323;SDS011;51937;48.364;11.378;2022-08-19T00:46:25;2.97;;;2.67;;
65323;SDS011;51937;48.364;11.378;2022-08-19T00:48:51;2.92;;;2.60;;
65323;SDS011;51937;48.364;11.378;2022-08-19T00:51:16;3.22;;;2.90;;
65323;SDS011;51937;48.364;11.378;2022-08-19T00:53:41;3.03;;;2.70;;
65323;SDS011;51937;48.364;11.378;2022-08-19T00:56:08;3.13;;;2.83;;
65323;SDS011;51937;48.364;11.378;2022-08-19T00:58:34;3.67;;;2.90;;
65323;SDS011;51937;48.364;11.378;2022-08-19T01:01:01;3.42;;;2.88;;
65323;SDS011;51937;48.364;11.378;2022-08-19T01:03:28;4.07;;;3.10;;
65323;SDS011;51937;48.364;11.378;2022-08-19T01:05:54;3.85;;;3.17;;
65323;SDS011;51937;48.364;11.378;2022-08-19T01:08:20;3.53;;;3.17;;
65323;SDS011;51937;48.364;11.378;2022-08-19T01:10:47;3.40;;;3.10;;
65323;SDS011;51937;48.364;11.378;2022-08-19T01:13:16;4.28;;;2.80;;
65323;SDS011;51937;48.364;11.378;2022-08-19T01:15:49;5.32;;;2.33;;
65323;SDS011;51937;48.364;11.378;2022-08-19T01:18:18;3.03;;;2.47;;
65323;SDS011;51937;48.364;11.378;2022-08-19T01:20:45;2.63;;;2.30;;
65323;SDS011;51937;48.364;11.378;2022-08-19T01:23:11;2.95;;;2.50;;
65323;SDS011;51937;48.364;11.378;2022-08-19T01:25:47;2.40;;;2.10;;
65323;SDS011;51937;48.364;11.378;2022-08-19T01:28:21;2.20;;;2.00;;
65323;SDS011;51937;48.364;11.378;2022-08-19T01:30:50;2.55;;;1.90;;
65323;SDS011;51937;48.364;11.378;2022-08-19T01:33:16;2.63;;;2.10;;
65323;SDS011;51937;48.364;11.378;2022-08-19T01:35:42;2.10;;;1.88;;
65323;SDS011;51937;48.364;11.378;2022-08-19T01:38:10;3.83;;;1.73;;
65323;SDS011;51937;48.364;11.378;2022-08-19T01:40:46;1.98;;;1.77;;
65323;SDS011;51937;48.364;11.378;2022-08-19T01:43:11;3.17;;;1.70;;
65323;SDS011;51937;48.364;11.378;2022-08-19T01:45:37;1.95;;;1.52;;
65323;SDS011;51937;48.364;11.378;2022-08-19T01:48:05;1.75;;;1.60;;
65323;SDS011;51937;48.364;11.378;2022-08-19T01:50:32;2.00;;;1.55;;
65323;SDS011;51937;48.364;11.378;2022-08-19T01:52:59;1.50;;;1.40;;
65323;SDS011;51937;48.364;11.378;2022-08-19T01:55:25;1.40;;;1.30;;
65323;SDS011;51937;48.364;11.378;2022-08-19T01:57:52;1.50;;;1.40;;
65323;SDS011;51937;48.364;11.378;2022-08-19T02:00:23;2.00;;;1.40;;
65323;SDS011;51937;48.364;11.378;2022-08-19T02:02:50;1.65;;;1.40;;
65323;SDS011;51937;48.364;11.378;2022-08-19T02:05:16;3.50;;;1.55;;
65323;SDS011;51937;48.364;11.378;2022-08-19T02:07:43;1.25;;;1.15;;
65323;SDS011;51937;48.364;11.378;2022-08-19T02:10:11;1.20;;;1.10;;
65323;SDS011;51937;48.364;11.378;2022-08-19T02:12:39;1.02;;;1.00;;
65323;SDS011;51937;48.364;11.378;2022-08-19T02:15:04;1.10;;;1.00;;
65323;SDS011;51937;48.364;11.378;2022-08-19T02:17:32;1.63;;;1.00;;
65323;SDS011;51937;48.364;11.378;2022-08-19T02:19:58;3.13;;;1.10;;
65323;SDS011;51937;48.364;11.378;2022-08-19T02:22:24;1.77;;;1.25;;
65323;SDS011;51937;48.364;11.378;2022-08-19T02:24:50;2.47;;;1.17;;
65323;SDS011;51937;48.364;11.378;2022-08-19T02:27:16;1.13;;;1.02;;
65323;SDS011;51937;48.364;11.378;2022-08-19T02:29:42;1.25;;;1.15;;
65323;SDS011;51937;48.364;11.378;2022-08-19T02:32:08;1.50;;;1.40;;
65323;SDS011;51937;48.364;11.378;2022-08-19T02:34:33;2.25;;;1.45;;
65323;SDS011;51937;48.364;11.378;2022-08-19T02:36:59;1.60;;;1.50;;
65323;SDS011;51937;48.364;11.378;2022-08-19T02:39:25;2.60;;;1.75;;
65323;SDS011;51937;48.364;11.378;2022-08-19T02:41:51;2.33;;;1.80;;
65323;SDS011;51937;48.364;11.378;2022-08-19T02:44:17;1.83;;;1.60;;
65323;SDS011;51937;48.364;11.378;2022-08-19T02:46:42;2.63;;;1.63;;
65323;SDS011;51937;48.364;11.378;2022-08-19T02:49:10;2.95;;;1.80;;
65323;SDS011;51937;48.364;11.378;2022-08-19T02:51:39;3.10;;;2.15;;
65323;SDS011;51937;48.364;11.378;2022-08-19T02:54:07;2.38;;;1.95;;
65323;SDS011;51937;48.364;11.378;2022-08-19T02:56:34;2.25;;;2.00;;
65323;SDS011;51937;48.364;11.378;2022-08-19T02:59:01;2.83;;;2.35;;
65323;SDS011;51937;48.364;11.378;2022-08-19T03:01:28;2.63;;;1.90;;
65323;SDS011;51937;48.364;11.378;2022-08-19T03:03:58;2.65;;;2.40;;
65323;SDS011;51937;48.364;11.378;2022-08-19T03:06:26;3.42;;;2.58;;
65323;SDS011;51937;48.364;11.378;2022-08-19T03:08:52;3.75;;;2.75;;
65323;SDS011;51937;48.364;11.378;2022-08-19T03:11:26;4.13;;;2.65;;
65323;SDS011;51937;48.364;11.378;2022-08-19T03:13:53;3.08;;;2.67;;
65323;SDS011;51937;48.364;11.378;2022-08-19T03:16:19;4.32;;;2.67;;
65323;SDS011;51937;48.364;11.378;2022-08-19T03:18:46;3.38;;;2.60;;
65323;SDS011;51937;48.364;11.378;2022-08-19T03:21:16;2.88;;;2.60;;
65323;SDS011;51937;48.364;11.378;2022-08-19T03:23:43;2.97;;;2.58;;
65323;SDS011;51937;48.364;11.378;2022-08-19T03:26:08;2.88;;;2.58;;
65323;SDS011;51937;48.364;11.378;2022-08-19T03:28:34;2.83;;;2.10;;
65323;SDS011;51937;48.364;11.378;2022-08-19T03:31:01;3.08;;;2.35;;
65323;SDS011;51937;48.364;11.378;2022-08-19T03:33:34;3.67;;;2.97;;
65323;SDS011;51937;48.364;11.378;2022-08-19T03:36:01;3.00;;;2.70;;
65323;SDS011;51937;48.364;11.378;2022-08-19T03:38:30;7.68;;;2.97;;
65323;SDS011;51937;48.364;11.378;2022-08-19T03:40:57;3.72;;;2.03;;
65323;SDS011;51937;48.364;11.378;2022-08-19T03:43:23;4.32;;;2.85;;
65323;SDS011;51937;48.364;11.378;2022-08-19T03:45:48;4.05;;;2.70;;
65323;SDS011;51937;48.364;11.378;2022-08-19T03:48:14;4.05;;;2.97;;
65323;SDS011;51937;48.364;11.378;2022-08-19T03:50:41;4.55;;;2.97;;
65323;SDS011;51937;48.364;11.378;2022-08-19T03:53:07;3.78;;;3.28;;
65323;SDS011;51937;48.364;11.378;2022-08-19T03:55:34;3.17;;;2.88;;
65323;SDS011;51937;48.364;11.378;2022-08-19T03:58:03;6.55;;;4.07;;
65323;SDS011;51937;48.364;11.378;2022-08-19T04:00:29;4.78;;;3.58;;
65323;SDS011;51937;48.364;11.378;2022-08-19T04:02:54;4.97;;;3.30;;
65323;SDS011;51937;48.364;11.378;2022-08-19T04:05:19;4.63;;;3.60;;
65323;SDS011;51937;48.364;11.378;2022-08-19T04:07:45;5.47;;;3.47;;
65323;SDS011;51937;48.364;11.378;2022-08-19T04:10:10;3.60;;;3.28;;
65323;SDS011;51937;48.364;11.378;2022-08-19T04:12:36;3.17;;;2.72;;
65323;SDS011;51937;48.364;11.378;2022-08-19T04:15:02;4.78;;;3.38;;
65323;SDS011;51937;48.364;11.378;2022-08-19T04:17:27;4.15;;;3.42;;
65323;SDS011;51937;48.364;11.378;2022-08-19T04:19:53;4.78;;;3.35;;
65323;SDS011;51937;48.364;11.378;2022-08-19T04:22:18;3.58;;;3.10;;
65323;SDS011;51937;48.364;11.378;2022-08-19T04:24:43;3.83;;;3.40;;
65323;SDS011;51937;48.364;11.378;2022-08-19T04:27:09;4.50;;;3.75;;
65323;SDS011;51937;48.364;11.378;2022-08-19T04:29:34;4.80;;;3.58;;
65323;SDS011;51937;48.364;11.378;2022-08-19T04:31:59;3.72;;;3.00;;
65323;SDS011;51937;48.364;11.378;2022-08-19T04:34:26;3.78;;;3.22;;
65323;SDS011;51937;48.364;11.378;2022-08-19T04:36:54;4.78;;;3.53;;
65323;SDS011;51937;48.364;11.378;2022-08-19T04:39:22;4.88;;;3.47;;
65323;SDS011;51937;48.364;11.378;2022-08-19T04:42:13;5.80;;;4.47;;
65323;SDS011;51937;48.364;11.378;2022-08-19T04:44:58;6.75;;;4.38;;
65323;SDS011;51937;48.364;11.378;2022-08-19T04:47:23;8.43;;;4.22;;
65323;SDS011;51937;48.364;11.378;2022-08-19T04:49:49;4.97;;;4.00;;
65323;SDS011;51937;48.364;11.378;2022-08-19T04:52:15;5.05;;;4.13;;
65323;SDS011;51937;48.364;11.378;2022-08-19T04:54:40;4.50;;;3.40;;
65323;SDS011;51937;48.364;11.378;2022-08-19T04:57:09;6.65;;;4.38;;
65323;SDS011;51937;48.364;11.378;2022-08-19T04:59:35;7.32;;;5.13;;
65323;SDS011;51937;48.364;11.378;2022-08-19T05:02:02;5.85;;;4.32;;
65323;SDS011;51937;48.364;11.378;2022-08-19T05:04:29;5.35;;;4.38;;
65323;SDS011;51937;48.364;11.378;2022-08-19T05:06:55;6.18;;;4.30;;
65323;SDS011;51937;48.364;11.378;2022-08-19T05:09:21;6.68;;;5.30;;
65323;SDS011;51937;48.364;11.378;2022-08-19T05:11:46;5.75;;;5.00;;
65323;SDS011;51937;48.364;11.378;2022-08-19T05:14:13;7.28;;;5.25;;
65323;SDS011;51937;48.364;11.378;2022-08-19T05:16:38;7.13;;;5.63;;
65323;SDS011;51937;48.364;11.378;2022-08-19T05:19:04;8.15;;;5.70;;
65323;SDS011;51937;48.364;11.378;2022-08-19T05:21:48;6.15;;;5.20;;
65323;SDS011;51937;48.364;11.378;2022-08-19T05:24:32;7.35;;;5.55;;
65323;SDS011;51937;48.364;11.378;2022-08-19T05:27:00;5.40;;;4.50;;
65323;SDS011;51937;48.364;11.378;2022-08-19T05:29:28;6.90;;;5.25;;
65323;SDS011;51937;48.364;11.378;2022-08-19T05:31:54;8.80;;;4.93;;
65323;SDS011;51937;48.364;11.378;2022-08-19T05:34:21;7.03;;;5.20;;
65323;SDS011;51937;48.364;11.378;2022-08-19T05:36:48;7.40;;;6.20;;
65323;SDS011;51937;48.364;11.378;2022-08-19T05:39:15;7.15;;;5.60;;
65323;SDS011;51937;48.364;11.378;2022-08-19T05:41:46;8.32;;;6.13;;
65323;SDS011;51937;48.364;11.378;2022-08-19T05:44:13;7.57;;;6.32;;
65323;SDS011;51937;48.364;11.378;2022-08-19T05:46:40;11.65;;;6.57;;
65323;SDS011;51937;48.364;11.378;2022-08-19T05:49:08;7.10;;;6.07;;
65323;SDS011;51937;48.364;11.378;2022-08-19T05:51:34;7.80;;;6.28;;
65323;SDS011;51937;48.364;11.378;2022-08-19T05:54:02;7.38;;;6.22;;
65323;SDS011;51937;48.364;11.378;2022-08-19T05:56:29;8.65;;;6.55;;
65323;SDS011;51937;48.364;11.378;2022-08-19T05:58:55;6.30;;;5.50;;
65323;SDS011;51937;48.364;11.378;2022-08-19T06:01:22;10.18;;;7.18;;
65323;SDS011;51937;48.364;11.378;2022-08-19T06:03:47;9.55;;;6.82;;
65323;SDS011;51937;48.364;11.378;2022-08-19T06:06:13;9.18;;;6.97;;
65323;SDS011;51937;48.364;11.378;2022-08-19T06:08:40;9.13;;;6.40;;
65323;SDS011;51937;48.364;11.378;2022-08-19T06:11:12;11.85;;;6.72;;
65323;SDS011;51937;48.364;11.378;2022-08-19T06:13:46;7.70;;;6.18;;
65323;SDS011;51937;48.364;11.378;2022-08-19T06:16:15;11.15;;;6.88;;
65323;SDS011;51937;48.364;11.378;2022-08-19T06:18:46;9.55;;;7.50;;
65323;SDS011;51937;48.364;11.378;2022-08-19T06:21:11;9.55;;;7.05;;
65323;SDS011;51937;48.364;11.378;2022-08-19T06:23:37;9.55;;;7.18;;
65323;SDS011;51937;48.364;11.378;2022-08-19T06:26:03;9.50;;;6.97;;
65323;SDS011;51937;48.364;11.378;2022-08-19T06:28:29;10.82;;;7.65;;
65323;SDS011;51937;48.364;11.378;2022-08-19T06:30:54;12.15;;;8.77;;
65323;SDS011;51937;48.364;11.378;2022-08-19T06:33:19;9.50;;;7.25;;
65323;SDS011;51937;48.364;11.378;2022-08-19T06:35:45;6.65;;;5.95;;
65323;SDS011;51937;48.364;11.378;2022-08-19T06:38:10;11.07;;;7.25;;
65323;SDS011;51937;48.364;11.378;2022-08-19T06:40:35;11.70;;;8.13;;
65323;SDS011;51937;48.364;11.378;2022-08-19T06:43:02;9.63;;;7.68;;
65323;SDS011;51937;48.364;11.378;2022-08-19T06:45:28;9.52;;;7.13;;
65323;SDS011;51937;48.364;11.378;2022-08-19T06:47:53;11.55;;;7.28;;
65323;SDS011;51937;48.364;11.378;2022-08-19T06:50:20;12.05;;;8.00;;
65323;SDS011;51937;48.364;11.378;2022-08-19T06:52:47;11.75;;;8.25;;
65323;SDS011;51937;48.364;11.378;2022-08-19T06:55:12;12.05;;;9.10;;
65323;SDS011;51937;48.364;11.378;2022-08-19T06:57:38;11.02;;;8.02;;
65323;SDS011;51937;48.364;11.378;2022-08-19T07:00:04;14.60;;;9.00;;
65323;SDS011;51937;48.364;11.378;2022-08-19T07:02:35;9.43;;;7.50;;
65323;SDS011;51937;48.364;11.378;2022-08-19T07:05:02;12.93;;;8.23;;
65323;SDS011;51937;48.364;11.378;2022-08-19T07:07:28;11.18;;;8.68;;
65323;SDS011;51937;48.364;11.378;2022-08-19T07:09:53;12.40;;;8.13;;
65323;SDS011;51937;48.364;11.378;2022-08-19T07:12:19;14.02;;;8.07;;
65323;SDS011;51937;48.364;11.378;2022-08-19T07:14:44;10.32;;;7.68;;
65323;SDS011;51937;48.364;11.378;2022-08-19T07:17:11;13.02;;;7.70;;
65323;SDS011;51937;48.364;11.378;2022-08-19T07:19:37;10.98;;;8.15;;
65323;SDS011;51937;48.364;11.378;2022-08-19T07:22:04;15.35;;;9.15;;
65323;SDS011;51937;48.364;11.378;2022-08-19T07:24:32;12.73;;;8.35;;
65323;SDS011;51937;48.364;11.378;2022-08-19T07:26:59;10.77;;;8.35;;
65323;SDS011;51937;48.364;11.378;2022-08-19T07:29:28;12.85;;;8.95;;
65323;SDS011;51937;48.364;11.378;2022-08-19T07:31:55;15.23;;;9.30;;
65323;SDS011;51937;48.364;11.378;2022-08-19T07:34:23;11.45;;;8.45;;
65323;SDS011;51937;48.364;11.378;2022-08-19T07:36:50;13.48;;;9.68;;
65323;SDS011;51937;48.364;11.378;2022-08-19T07:39:18;12.95;;;9.55;;
65323;SDS011;51937;48.364;11.378;2022-08-19T07:41:46;13.00;;;9.38;;
65323;SDS011;51937;48.364;11.378;2022-08-19T07:44:12;13.20;;;10.15;;
65323;SDS011;51937;48.364;11.378;2022-08-19T07:46:40;11.95;;;9.07;;
65323;SDS011;51937;48.364;11.378;2022-08-19T07:49:09;11.50;;;7.95;;
65323;SDS011;51937;48.364;11.378;2022-08-19T07:51:39;11.93;;;9.35;;
65323;SDS011;51937;48.364;11.378;2022-08-19T07:54:04;13.50;;;9.60;;
65323;SDS011;51937;48.364;11.378;2022-08-19T07:56:30;13.05;;;9.20;;
65323;SDS011;51937;48.364;11.378;2022-08-19T07:58:55;16.83;;;9.02;;
65323;SDS011;51937;48.364;11.378;2022-08-19T08:01:24;13.45;;;10.07;;
65323;SDS011;51937;48.364;11.378;2022-08-19T08:03:51;17.08;;;10.23;;
65323;SDS011;51937;48.364;11.378;2022-08-19T08:06:36;13.27;;;8.98;;
65323;SDS011;51937;48.364;11.378;2022-08-19T08:09:25;15.97;;;10.13;;
65323;SDS011;51937;48.364;11.378;2022-08-19T08:11:55;15.85;;;10.15;;
65323;SDS011;51937;48.364;11.378;2022-08-19T08:14:25;13.57;;;10.65;;
65323;SDS011;51937;48.364;11.378;2022-08-19T08:16:52;18.35;;;11.05;;
65323;SDS011;51937;48.364;11.378;2022-08-19T08:19:19;14.93;;;11.10;;
65323;SDS011;51937;48.364;11.378;2022-08-19T08:21:47;16.02;;;10.82;;
65323;SDS011;51937;48.364;11.378;2022-08-19T08:24:13;18.98;;;10.88;;
65323;SDS011;51937;48.364;11.378;2022-08-19T08:26:39;16.05;;;10.88;;
65323;SDS011;51937;48.364;11.378;2022-08-19T08:29:05;17.90;;;12.57;;
65323;SDS011;51937;48.364;11.378;2022-08-19T08:31:33;16.85;;;11.10;;
65323;SDS011;51937;48.364;11.378;2022-08-19T08:33:59;12.13;;;8.63;;
65323;SDS011;51937;48.364;11.378;2022-08-19T08:36:24;14.50;;;10.40;;
65323;SDS011;51937;48.364;11.378;2022-08-19T08:38:50;15.95;;;10.43;;
65323;SDS011;51937;48.364;11.378;2022-08-19T08:44:22;16.13;;;11.70;;
65323;SDS011;51937;48.364;11.378;2022-08-19T08:46:58;16.63;;;11.15;;
65323;SDS011;51937;48.364;11.378;2022-08-19T08:49:47;18.70;;;11.55;;
65323;SDS011;51937;48.364;11.378;2022-08-19T08:52:24;17.77;;;10.82;;
65323;SDS011;51937;48.364;11.378;2022-08-19T08:54:55;16.08;;;11.02;;
65323;SDS011;51937;48.364;11.378;2022-08-19T08:57:35;17.83;;;11.32;;
65323;SDS011;51937;48.364;11.378;2022-08-19T09:00:07;18.00;;;11.15;;
65323;SDS011;51937;48.364;11.378;2022-08-19T09:02:39;12.60;;;8.73;;
65323;SDS011;51937;48.364;11.378;2022-08-19T09:05:05;20.88;;;11.48;;
65323;SDS011;51937;48.364;11.378;2022-08-19T09:10:54;16.77;;;12.00;;
65323;SDS011;51937;48.364;11.378;2022-08-19T09:13:36;16.83;;;10.60;;
65323;SDS011;51937;48.364;11.378;2022-08-19T09:16:12;15.45;;;10.73;;
65323;SDS011;51937;48.364;11.378;2022-08-19T09:21:06;15.52;;;10.63;;
65323;SDS011;51937;48.364;11.378;2022-08-19T09:23:33;16.88;;;11.40;;
65323;SDS011;51937;48.364;11.378;2022-08-19T09:25:59;15.60;;;10.30;;
65323;SDS011;51937;48.364;11.378;2022-08-19T09:28:24;14.15;;;10.13;;
65323;SDS011;51937;48.364;11.378;2022-08-19T09:30:50;17.35;;;12.23;;
65323;SDS011;51937;48.364;11.378;2022-08-19T09:33:16;16.38;;;11.50;;
65323;SDS011;51937;48.364;11.378;2022-08-19T09:35:42;15.93;;;11.57;;
65323;SDS011;51937;48.364;11.378;2022-08-19T09:38:07;16.75;;;10.48;;
65323;SDS011;51937;48.364;11.378;2022-08-19T09:40:33;15.45;;;10.52;;
65323;SDS011;51937;48.364;11.378;2022-08-19T09:42:58;14.55;;;11.13;;
65323;SDS011;51937;48.364;11.378;2022-08-19T09:45:27;15.50;;;11.30;;
65323;SDS011;51937;48.364;11.378;2022-08-19T09:47:53;15.02;;;10.23;;
65323;SDS011;51937;48.364;11.378;2022-08-19T09:50:19;14.57;;;11.00;;
65323;SDS011;51937;48.364;11.378;2022-08-19T09:52:45;14.07;;;10.90;;
65323;SDS011;51937;48.364;11.378;2022-08-19T09:55:11;13.38;;;9.98;;
65323;SDS011;51937;48.364;11.378;2022-08-19T09:57:37;15.38;;;10.90;;
65323;SDS011;51937;48.364;11.378;2022-08-19T10:00:05;14.85;;;10.63;;
65323;SDS011;51937;48.364;11.378;2022-08-19T10:02:32;13.05;;;10.88;;
65323;SDS011;51937;48.364;11.378;2022-08-19T10:04:58;14.48;;;10.70;;
65323;SDS011;51937;48.364;11.378;2022-08-19T10:07:42;13.77;;;9.52;;
65323;SDS011;51937;48.364;11.378;2022-08-19T10:10:07;14.93;;;9.45;;
65323;SDS011;51937;48.364;11.378;2022-08-19T10:12:34;13.70;;;8.13;;
65323;SDS011;51937;48.364;11.378;2022-08-19T10:15:00;11.52;;;8.50;;
65323;SDS011;51937;48.364;11.378;2022-08-19T10:17:26;10.88;;;9.00;;
65323;SDS011;51937;48.364;11.378;2022-08-19T10:19:52;11.07;;;8.50;;
65323;SDS011;51937;48.364;11.378;2022-08-19T10:22:18;13.18;;;9.75;;
65323;SDS011;51937;48.364;11.378;2022-08-19T10:24:45;10.20;;;7.63;;
65323;SDS011;51937;48.364;11.378;2022-08-19T10:27:10;12.13;;;8.15;;
65323;SDS011;51937;48.364;11.378;2022-08-19T10:29:37;10.05;;;8.13;;
65323;SDS011;51937;48.364;11.378;2022-08-19T10:32:04;10.43;;;7.55;;
65323;SDS011;51937;48.364;11.378;2022-08-19T10:34:32;10.60;;;8.15;;
65323;SDS011;51937;48.364;11.378;2022-08-19T10:36:58;12.13;;;8.60;;
65323;SDS011;51937;48.364;11.378;2022-08-19T10:39:25;10.13;;;7.53;;
65323;SDS011;51937;48.364;11.378;2022-08-19T10:41:53;10.07;;;7.72;;
65323;SDS011;51937;48.364;11.378;2022-08-19T10:44:18;9.80;;;7.00;;
65323;SDS011;51937;48.364;11.378;2022-08-19T10:46:44;12.60;;;7.88;;
65323;SDS011;51937;48.364;11.378;2022-08-19T10:49:11;9.95;;;7.80;;
65323;SDS011;51937;48.364;11.378;2022-08-19T10:51:39;11.35;;;7.32;;
65323;SDS011;51937;48.364;11.378;2022-08-19T10:57:08;5.93;;;4.97;;
65323;SDS011;51937;48.364;11.378;2022-08-19T10:59:34;6.03;;;4.40;;
65323;SDS011;51937;48.364;11.378;2022-08-19T11:02:01;5.25;;;3.42;;
65323;SDS011;51937;48.364;11.378;2022-08-19T11:04:29;4.22;;;3.60;;
65323;SDS011;51937;48.364;11.378;2022-08-19T11:06:55;3.47;;;3.05;;
65323;SDS011;51937;48.364;11.378;2022-08-19T11:09:21;4.43;;;3.03;;
65323;SDS011;51937;48.364;11.378;2022-08-19T11:11:52;3.03;;;2.47;;
65323;SDS011;51937;48.364;11.378;2022-08-19T11:14:18;3.00;;;2.25;;
65323;SDS011;51937;48.364;11.378;2022-08-19T11:16:45;2.17;;;1.63;;
65323;SDS011;51937;48.364;11.378;2022-08-19T11:19:16;1.90;;;1.70;;
65323;SDS011;51937;48.364;11.378;2022-08-19T11:21:44;1.35;;;1.25;;
65323;SDS011;51937;48.364;11.378;2022-08-19T11:24:21;1.85;;;1.20;;
65323;SDS011;51937;48.364;11.378;2022-08-19T11:26:49;1.20;;;1.10;;
65323;SDS011;51937;48.364;11.378;2022-08-19T11:29:16;1.63;;;1.30;;
65323;SDS011;51937;48.364;11.378;2022-08-19T11:31:45;1.48;;;1.15;;
65323;SDS011;51937;48.364;11.378;2022-08-19T11:34:14;1.08;;;0.98;;
65323;SDS011;51937;48.364;11.378;2022-08-19T11:36:42;1.17;;;1.10;;
65323;SDS011;51937;48.364;11.378;2022-08-19T11:39:10;1.75;;;1.20;;
65323;SDS011;51937;48.364;11.378;2022-08-19T11:41:37;1.23;;;1.00;;
65323;SDS011;51937;48.364;11.378;2022-08-19T11:44:03;1.58;;;1.00;;
65323;SDS011;51937;48.364;11.378;2022-08-19T11:46:29;2.00;;;1.40;;
65323;SDS011;51937;48.364;11.378;2022-08-19T11:48:58;1.65;;;1.40;;
65323;SDS011;51937;48.364;11.378;2022-08-19T11:51:25;1.73;;;1.30;;
65323;SDS011;51937;48.364;11.378;2022-08-19T11:53:53;1.25;;;0.93;;
65323;SDS011;51937;48.364;11.378;2022-08-19T11:56:20;2.67;;;1.25;;
65323;SDS011;51937;48.364;11.378;2022-08-19T11:58:47;1.30;;;1.20;;
65323;SDS011;51937;48.364;11.378;2022-08-19T12:01:14;1.02;;;1.00;;
65323;SDS011;51937;48.364;11.378;2022-08-19T12:03:42;1.05;;;0.90;;
65323;SDS011;51937;48.364;11.378;2022-08-19T12:06:09;2.75;;;0.93;;
65323;SDS011;51937;48.364;11.378;2022-08-19T12:08:38;0.70;;;0.70;;
65323;SDS011;51937;48.364;11.378;2022-08-19T12:11:04;0.90;;;0.90;;
65323;SDS011;51937;48.364;11.378;2022-08-19T12:13:33;0.85;;;0.80;;
65323;SDS011;51937;48.364;11.378;2022-08-19T12:15:59;0.95;;;0.80;;
65323;SDS011;51937;48.364;11.378;2022-08-19T12:18:25;1.30;;;1.02;;
65323;SDS011;51937;48.364;11.378;2022-08-19T12:20:51;1.30;;;0.98;;
65323;SDS011;51937;48.364;11.378;2022-08-19T12:23:21;1.38;;;1.13;;
65323;SDS011;51937;48.364;11.378;2022-08-19T12:25:47;17.45;;;1.00;;
65323;SDS011;51937;48.364;11.378;2022-08-19T12:28:18;1.23;;;1.13;;
65323;SDS011;51937;48.364;11.378;2022-08-19T12:30:45;2.20;;;1.10;;
65323;SDS011;51937;48.364;11.378;2022-08-19T12:33:10;1.55;;;1.45;;
65323;SDS011;51937;48.364;11.378;2022-08-19T12:35:39;2.20;;;2.00;;
65323;SDS011;51937;48.364;11.378;2022-08-19T12:38:08;2.20;;;2.00;;
65323;SDS011;51937;48.364;11.378;2022-08-19T12:40:34;2.08;;;1.90;;
65323;SDS011;51937;48.364;11.378;2022-08-19T12:43:00;2.28;;;2.08;;
65323;SDS011;51937;48.364;11.378;2022-08-19T12:45:25;1.70;;;1.60;;
65323;SDS011;51937;48.364;11.378;2022-08-19T12:47:53;1.77;;;1.67;;
65323;SDS011;51937;48.364;11.378;2022-08-19T12:50:18;2.72;;;2.20;;
65323;SDS011;51937;48.364;11.378;2022-08-19T12:52:46;2.92;;;2.17;;
65323;SDS011;51937;48.364;11.378;2022-08-19T12:55:13;2.80;;;2.08;;
65323;SDS011;51937;48.364;11.378;2022-08-19T12:57:39;2.85;;;2.28;;
65323;SDS011;51937;48.364;11.378;2022-08-19T13:02:35;2.20;;;1.92;;
65323;SDS011;51937;48.364;11.378;2022-08-19T13:05:02;2.50;;;2.30;;
65323;SDS011;51937;48.364;11.378;2022-08-19T13:07:28;2.38;;;2.03;;
65323;SDS011;51937;48.364;11.378;2022-08-19T13:09:55;2.30;;;1.90;;
65323;SDS011;51937;48.364;11.378;2022-08-19T13:12:20;1.85;;;1.75;;
65323;SDS011;51937;48.364;11.378;2022-08-19T13:14:46;2.30;;;1.83;;
65323;SDS011;51937;48.364;11.378;2022-08-19T13:17:14;2.63;;;2.38;;
65323;SDS011;51937;48.364;11.378;2022-08-19T13:19:40;2.20;;;1.90;;
65323;SDS011;51937;48.364;11.378;2022-08-19T13:22:06;1.85;;;1.75;;
65323;SDS011;51937;48.364;11.378;2022-08-19T13:24:31;2.35;;;1.83;;
65323;SDS011;51937;48.364;11.378;2022-08-19T13:26:58;1.85;;;1.73;;
65323;SDS011;51937;48.364;11.378;2022-08-19T13:29:24;3.97;;;1.45;;
65323;SDS011;51937;48.364;11.378;2022-08-19T13:32:08;1.48;;;1.08;;
65323;SDS011;51937;48.364;11.378;2022-08-19T13:34:52;1.02;;;1.02;;
65323;SDS011;51937;48.364;11.378;2022-08-19T13:37:17;1.20;;;0.93;;
65323;SDS011;51937;48.364;11.378;2022-08-19T13:40:02;1.50;;;1.38;;
65323;SDS011;51937;48.364;11.378;2022-08-19T13:42:28;1.67;;;1.27;;
65323;SDS011;51937;48.364;11.378;2022-08-19T13:44:54;1.30;;;1.20;;
65323;SDS011;51937;48.364;11.378;2022-08-19T13:47:20;2.13;;;1.05;;
65323;SDS011;51937;48.364;11.378;2022-08-19T13:49:45;1.50;;;1.40;;
65323;SDS011;51937;48.364;11.378;2022-08-19T13:52:11;1.38;;;1.27;;
65323;SDS011;51937;48.364;11.378;2022-08-19T13:54:36;1.92;;;1.63;;
65323;SDS011;51937;48.364;11.378;2022-08-19T13:57:01;1.60;;;1.50;;
65323;SDS011;51937;48.364;11.378;2022-08-19T13:59:27;3.42;;;2.30;;
65323;SDS011;51937;48.364;11.378;2022-08-19T14:01:52;2.28;;;1.77;;
65323;SDS011;51937;48.364;11.378;2022-08-19T14:04:23;2.30;;;2.10;;
65323;SDS011;51937;48.364;11.378;2022-08-19T14:06:48;2.28;;;2.08;;
65323;SDS011;51937;48.364;11.378;2022-08-19T14:09:13;3.15;;;2.85;;
65323;SDS011;51937;48.364;11.378;2022-08-19T14:11:39;3.88;;;3.00;;
65323;SDS011;51937;48.364;11.378;2022-08-19T14:14:04;5.25;;;3.60;;
65323;SDS011;51937;48.364;11.378;2022-08-19T14:16:29;5.88;;;4.63;;
65323;SDS011;51937;48.364;11.378;2022-08-19T14:18:55;5.65;;;4.45;;
65323;SDS011;51937;48.364;11.378;2022-08-19T14:21:21;5.35;;;4.28;;
65323;SDS011;51937;48.364;11.378;2022-08-19T14:23:48;5.88;;;4.65;;
65323;SDS011;51937;48.364;11.378;2022-08-19T14:26:15;5.57;;;4.28;;
65323;SDS011;51937;48.364;11.378;2022-08-19T14:28:42;6.15;;;5.47;;
65323;SDS011;51937;48.364;11.378;2022-08-19T14:31:09;6.78;;;5.28;;
65323;SDS011;51937;48.364;11.378;2022-08-19T14:33:35;5.30;;;4.57;;
65323;SDS011;51937;48.364;11.378;2022-08-19T14:36:01;7.20;;;4.85;;
65323;SDS011;51937;48.364;11.378;2022-08-19T14:38:27;6.20;;;4.47;;
65323;SDS011;51937;48.364;11.378;2022-08-19T14:40:56;8.02;;;5.43;;
65323;SDS011;51937;48.364;11.378;2022-08-19T14:43:30;6.93;;;5.32;;